createdAt,value
2023-03-22T00:00:30.059Z,6.33
2023-03-22T00:02:58.217Z,5.80
2023-03-22T00:05:26.410Z,6.10
2023-03-22T00:07:57.940Z,5.90
2023-03-22T00:10:27.544Z,6.30
2023-03-22T00:13:03.275Z,5.97
2023-03-22T00:15:34.833Z,6.10
2023-03-22T00:18:06.039Z,5.97
2023-03-22T00:20:38.367Z,6.00
2023-03-22T00:23:06.636Z,6.40
2023-03-22T00:25:34.664Z,6.13
2023-03-22T00:28:02.599Z,6.00
2023-03-22T00:30:30.428Z,6.00
2023-03-22T00:32:59.716Z,5.93
2023-03-22T00:35:27.642Z,5.77
2023-03-22T00:37:56.090Z,6.40
2023-03-22T00:40:24.805Z,5.47
2023-03-22T00:42:52.611Z,6.33
2023-03-22T00:45:20.624Z,6.10
2023-03-22T00:47:48.448Z,5.97
2023-03-22T00:50:17.980Z,6.20
2023-03-22T00:52:46.025Z,6.40
2023-03-22T00:55:13.827Z,6.97
2023-03-22T00:57:41.643Z,6.07
2023-03-22T01:00:13.627Z,6.40
2023-03-22T01:02:42.505Z,6.77
2023-03-22T01:05:15.842Z,6.30
2023-03-22T01:07:46.150Z,6.60
2023-03-22T01:10:14.181Z,6.50
2023-03-22T01:12:42.064Z,6.77
2023-03-22T01:15:10.919Z,6.33
2023-03-22T01:17:38.808Z,6.67
2023-03-22T01:20:09.325Z,7.20
2023-03-22T01:22:37.143Z,7.07
2023-03-22T01:25:07.472Z,7.33
2023-03-22T01:27:35.274Z,7.67
2023-03-22T01:30:03.563Z,7.20
2023-03-22T01:32:31.378Z,6.90
2023-03-22T01:34:59.203Z,6.73
2023-03-22T01:37:29.935Z,6.87
2023-03-22T01:39:58.017Z,6.97
2023-03-22T01:42:28.449Z,8.07
2023-03-22T01:45:35.653Z,6.53
2023-03-22T01:48:07.637Z,6.43
2023-03-22T01:50:42.514Z,7.43
2023-03-22T01:53:13.683Z,7.53
2023-03-22T01:55:42.593Z,7.47
2023-03-22T01:58:18.195Z,8.10
2023-03-22T02:00:54.297Z,7.40
2023-03-22T02:03:53.588Z,8.10
2023-03-22T02:06:22.580Z,8.07
2023-03-22T02:08:58.356Z,7.17
2023-03-22T02:11:32.082Z,7.97
2023-03-22T02:14:34.802Z,7.20
2023-03-22T02:17:46.299Z,7.83
2023-03-22T02:21:06.528Z,7.23
2023-03-22T02:24:29.042Z,7.20
2023-03-22T02:27:16.137Z,6.97
2023-03-22T02:29:47.850Z,7.03
2023-03-22T02:32:48.779Z,7.03
2023-03-22T02:35:47.471Z,7.23
2023-03-22T02:39:02.048Z,6.67
2023-03-22T02:41:43.813Z,6.90
2023-03-22T02:44:22.540Z,6.97
2023-03-22T02:47:01.492Z,7.70
2023-03-22T02:49:36.269Z,7.00
2023-03-22T02:52:17.503Z,7.40
2023-03-22T02:54:53.980Z,7.50
2023-03-22T02:57:26.438Z,7.17
2023-03-22T02:59:59.329Z,7.57
2023-03-22T03:02:29.805Z,7.43
2023-03-22T03:04:58.941Z,7.43
2023-03-22T03:07:30.609Z,7.47
2023-03-22T03:09:59.891Z,7.53
2023-03-22T03:12:30.230Z,7.70
2023-03-22T03:14:58.534Z,7.40
2023-03-22T03:17:39.925Z,8.03
2023-03-22T03:20:24.214Z,7.50
2023-03-22T03:23:06.040Z,7.97
2023-03-22T03:25:43.420Z,7.17
2023-03-22T03:28:22.883Z,7.60
2023-03-22T03:30:57.901Z,7.73
2023-03-22T03:33:28.874Z,7.73
2023-03-22T03:36:01.893Z,8.37
2023-03-22T03:38:32.692Z,8.20
2023-03-22T03:41:04.810Z,8.43
2023-03-22T03:43:33.453Z,8.67
2023-03-22T03:46:01.820Z,8.00
2023-03-22T03:48:31.470Z,10.57
2023-03-22T03:51:02.182Z,9.80
2023-03-22T03:53:31.121Z,9.33
2023-03-22T03:55:58.954Z,7.77
2023-03-22T03:58:31.508Z,7.63
2023-03-22T04:00:59.349Z,14.80
2023-03-22T04:03:50.616Z,9.60
2023-03-22T04:06:35.654Z,8.90
2023-03-22T04:09:10.066Z,8.60
2023-03-22T04:11:42.542Z,9.00
2023-03-22T04:14:12.015Z,8.23
2023-03-22T04:16:39.933Z,7.73
2023-03-22T04:19:10.961Z,10.30
2023-03-22T04:21:38.835Z,11.60
2023-03-22T04:24:09.068Z,9.70
2023-03-22T04:26:40.558Z,9.23
2023-03-22T04:29:17.216Z,9.70
2023-03-22T04:31:49.871Z,9.80
2023-03-22T04:34:40.655Z,9.77
2023-03-22T04:37:14.728Z,11.63
2023-03-22T04:40:01.850Z,9.60
2023-03-22T04:42:37.646Z,10.00
2023-03-22T04:45:29.149Z,11.23
2023-03-22T04:48:01.032Z,8.57
2023-03-22T04:50:29.195Z,8.43
2023-03-22T04:53:01.132Z,9.33
2023-03-22T04:55:30.030Z,8.27
2023-03-22T04:57:57.822Z,8.80
2023-03-22T05:00:30.361Z,9.10
2023-03-22T05:02:59.206Z,8.13
2023-03-22T05:05:39.608Z,8.37
2023-03-22T05:08:07.763Z,7.93
2023-03-22T05:10:35.659Z,7.93
2023-03-22T05:13:04.097Z,8.13
2023-03-22T05:15:35.146Z,7.70
2023-03-22T05:18:05.191Z,7.60
2023-03-22T05:20:33.037Z,7.90
2023-03-22T05:23:21.122Z,7.97
2023-03-22T05:25:54.255Z,7.40
2023-03-22T05:28:22.872Z,7.13
2023-03-22T05:31:11.884Z,7.03
2023-03-22T05:33:46.630Z,7.07
2023-03-22T05:36:16.826Z,7.57
2023-03-22T05:39:03.242Z,7.17
2023-03-22T05:41:31.731Z,7.37
2023-03-22T05:43:59.559Z,8.27
2023-03-22T05:46:28.899Z,8.00
2023-03-22T05:49:26.777Z,7.67
2023-03-22T05:51:55.286Z,8.40
2023-03-22T05:54:26.524Z,7.50
2023-03-22T05:56:55.802Z,7.63
2023-03-22T05:59:24.248Z,6.93
2023-03-22T06:01:53.806Z,7.57
2023-03-22T06:04:24.624Z,7.03
2023-03-22T06:07:13.716Z,7.23
2023-03-22T06:10:05.260Z,7.33
2023-03-22T06:12:33.615Z,7.13
2023-03-22T06:15:10.435Z,7.50
2023-03-22T06:17:39.754Z,8.33
2023-03-22T06:20:14.196Z,8.03
2023-03-22T06:22:47.559Z,8.67
2023-03-22T06:25:16.687Z,8.30
2023-03-22T06:27:46.998Z,8.53
2023-03-22T06:30:15.242Z,8.70
2023-03-22T06:33:05.036Z,8.50
2023-03-22T06:35:36.902Z,8.90
2023-03-22T06:38:06.058Z,8.30
2023-03-22T06:40:35.728Z,9.17
2023-03-22T06:43:06.817Z,8.83
2023-03-22T06:45:36.642Z,9.30
2023-03-22T06:48:07.811Z,9.40
2023-03-22T06:50:52.260Z,9.20
2023-03-22T06:53:26.567Z,9.47
2023-03-22T06:55:55.448Z,9.30
2023-03-22T06:58:25.705Z,9.53
2023-03-22T07:00:53.806Z,9.33
2023-03-22T07:03:25.329Z,9.07
2023-03-22T07:06:02.249Z,9.17
2023-03-22T07:08:32.428Z,9.10
2023-03-22T07:11:00.301Z,8.53
2023-03-22T07:13:28.463Z,8.33
2023-03-22T07:16:02.763Z,7.87
2023-03-22T07:18:41.918Z,7.30
2023-03-22T07:21:10.428Z,7.10
2023-03-22T07:23:40.948Z,7.10
2023-03-22T07:26:13.429Z,6.80
2023-03-22T07:28:44.726Z,6.77
2023-03-22T07:31:15.073Z,6.27
2023-03-22T07:34:04.978Z,5.83
2023-03-22T07:36:39.481Z,5.83
2023-03-22T07:39:10.709Z,5.60
2023-03-22T07:41:43.405Z,5.63
2023-03-22T07:44:33.733Z,5.90
2023-03-22T07:47:37.755Z,5.43
2023-03-22T07:50:21.747Z,5.80
2023-03-22T07:52:54.623Z,5.53
2023-03-22T07:55:22.605Z,4.90
2023-03-22T07:57:51.188Z,5.30
2023-03-22T08:00:19.915Z,5.20
2023-03-22T08:02:57.506Z,5.17
2023-03-22T08:05:58.874Z,4.90
2023-03-22T08:08:27.397Z,4.80
2023-03-22T08:10:55.269Z,5.13
2023-03-22T08:13:23.106Z,4.90
2023-03-22T08:15:50.954Z,5.07
2023-03-22T08:18:20.767Z,4.83
2023-03-22T08:20:56.254Z,5.00
2023-03-22T08:23:38.523Z,4.53
2023-03-22T08:26:27.786Z,4.47
2023-03-22T08:28:58.413Z,4.23
2023-03-22T08:31:26.482Z,4.10
2023-03-22T08:33:55.006Z,4.33
2023-03-22T08:36:24.494Z,3.50
2023-03-22T08:39:04.174Z,4.23
2023-03-22T08:41:44.531Z,3.70
2023-03-22T08:44:12.462Z,3.80
2023-03-22T08:46:41.306Z,3.27
2023-03-22T08:49:10.439Z,3.47
2023-03-22T08:51:49.260Z,3.30
2023-03-22T08:54:21.599Z,3.47
2023-03-22T08:57:03.214Z,3.27
2023-03-22T08:59:40.946Z,3.20
2023-03-22T09:02:30.906Z,3.10
2023-03-22T09:04:59.949Z,2.83
2023-03-22T09:07:30.413Z,2.60
2023-03-22T09:10:20.863Z,2.90
2023-03-22T09:12:52.407Z,2.70
2023-03-22T09:15:20.770Z,2.60
2023-03-22T09:18:02.052Z,2.70
2023-03-22T09:20:30.132Z,2.40
2023-03-22T09:22:59.365Z,2.17
2023-03-22T09:25:27.454Z,2.10
2023-03-22T09:27:55.585Z,2.10
2023-03-22T09:30:23.639Z,1.70
2023-03-22T09:32:51.596Z,1.63
2023-03-22T09:35:21.922Z,1.70
2023-03-22T09:38:01.383Z,1.80
2023-03-22T09:40:31.550Z,1.97
2023-03-22T09:43:03.368Z,1.67
2023-03-22T09:45:38.475Z,1.83
2023-03-22T09:48:12.836Z,1.73
2023-03-22T09:50:46.691Z,1.70
2023-03-22T09:53:17.516Z,1.50
2023-03-22T09:55:51.826Z,1.97
2023-03-22T09:58:26.752Z,1.77
2023-03-22T10:01:01.124Z,1.90
2023-03-22T10:03:53.556Z,1.90
2023-03-22T10:06:23.543Z,2.03
2023-03-22T10:09:00.971Z,1.90
2023-03-22T10:11:41.031Z,1.70
2023-03-22T10:14:23.472Z,1.97
2023-03-22T10:16:55.318Z,2.10
2023-03-22T10:19:28.385Z,2.30
2023-03-22T10:21:58.601Z,1.90
2023-03-22T10:24:32.774Z,2.00
2023-03-22T10:27:01.167Z,2.20
2023-03-22T10:29:35.346Z,1.80
2023-03-22T10:32:16.516Z,1.70
2023-03-22T10:34:44.912Z,1.93
2023-03-22T10:37:17.110Z,2.10
2023-03-22T10:39:49.865Z,2.00
2023-03-22T10:42:21.677Z,2.07
2023-03-22T10:44:51.927Z,1.90
2023-03-22T10:47:30.587Z,1.90
2023-03-22T10:50:01.951Z,1.90
2023-03-22T10:52:39.589Z,1.57
2023-03-22T10:55:11.633Z,1.40
2023-03-22T10:57:41.027Z,1.50
2023-03-22T11:00:11.552Z,1.40
2023-03-22T11:02:48.025Z,1.50
2023-03-22T11:05:23.875Z,1.47
2023-03-22T11:07:51.998Z,1.97
2023-03-22T11:10:28.436Z,1.90
2023-03-22T11:13:11.841Z,1.70
2023-03-22T11:15:56.449Z,1.53
2023-03-22T11:18:25.976Z,1.80
2023-03-22T11:20:59.033Z,1.80
2023-03-22T11:23:28.507Z,1.80
2023-03-22T11:26:06.089Z,2.00
2023-03-22T11:28:36.521Z,2.10
2023-03-22T11:31:07.702Z,1.83
2023-03-22T11:33:36.796Z,2.00
2023-03-22T11:36:15.884Z,1.63
2023-03-22T11:38:45.594Z,1.77
2023-03-22T11:41:23.246Z,2.00
2023-03-22T11:43:54.370Z,1.70
2023-03-22T11:46:23.152Z,1.60
2023-03-22T11:48:53.387Z,1.67
2023-03-22T11:51:30.896Z,1.60
2023-03-22T11:54:07.644Z,1.87
2023-03-22T11:56:42.493Z,1.80
2023-03-22T11:59:15.309Z,1.50
2023-03-22T12:01:49.471Z,1.60
2023-03-22T12:04:22.493Z,1.90
2023-03-22T12:06:53.689Z,1.80
2023-03-22T12:09:29.440Z,1.60
2023-03-22T12:12:02.713Z,1.52
2023-03-22T12:14:36.710Z,1.50
2023-03-22T12:17:11.511Z,1.55
2023-03-22T12:19:49.725Z,1.70
2023-03-22T12:22:21.989Z,1.50
2023-03-22T12:24:49.950Z,1.52
2023-03-22T12:27:24.116Z,1.45
2023-03-22T12:29:56.031Z,1.63
2023-03-22T12:32:28.394Z,1.80
2023-03-22T12:35:09.259Z,1.88
2023-03-22T12:37:47.341Z,1.70
2023-03-22T12:40:21.666Z,1.67
2023-03-22T12:43:00.382Z,1.90
2023-03-22T12:45:31.281Z,1.70
2023-03-22T12:48:07.278Z,1.58
2023-03-22T12:50:40.268Z,1.90
2023-03-22T12:53:13.840Z,1.77
2023-03-22T12:55:42.473Z,1.63
2023-03-22T12:58:16.105Z,1.80
2023-03-22T13:00:48.756Z,1.90
2023-03-22T13:03:26.860Z,1.87
2023-03-22T13:06:04.599Z,2.10
2023-03-22T13:09:12.980Z,1.63
2023-03-22T13:11:41.136Z,2.10
2023-03-22T13:14:13.354Z,2.10
2023-03-22T13:17:00.742Z,2.28
2023-03-22T13:19:33.596Z,2.17
2023-03-22T13:22:22.507Z,1.77
2023-03-22T13:25:16.705Z,2.22
2023-03-22T13:27:53.766Z,2.22
2023-03-22T13:30:28.127Z,1.83
2023-03-22T13:33:03.462Z,1.90
2023-03-22T13:35:44.096Z,2.10
2023-03-22T13:38:21.059Z,1.98
2023-03-22T13:40:55.518Z,1.80
2023-03-22T13:43:34.217Z,2.40
2023-03-22T13:46:44.594Z,2.15
2023-03-22T13:49:28.912Z,1.77
2023-03-22T13:51:59.883Z,1.90
2023-03-22T13:54:33.658Z,1.95
2023-03-22T13:57:01.795Z,1.90
2023-03-22T13:59:33.863Z,1.80
2023-03-22T14:02:15.685Z,2.22
2023-03-22T14:04:47.522Z,1.73
2023-03-22T14:07:23.787Z,1.60
2023-03-22T14:09:54.356Z,1.65
2023-03-22T14:12:26.650Z,1.60
2023-03-22T14:14:58.172Z,1.80
2023-03-22T14:17:38.852Z,1.60
2023-03-22T14:20:10.444Z,1.30
